createdAt,value
2019-04-22T00:02:12.812Z,12.80
2019-04-22T00:04:56.178Z,12.80
2019-04-22T00:07:35.882Z,12.70
2019-04-22T00:10:16.204Z,12.70
2019-04-22T00:12:43.931Z,12.70
2019-04-22T00:15:12.714Z,12.70
2019-04-22T00:17:53.778Z,12.60
2019-04-22T00:20:14.706Z,12.60
2019-04-22T00:22:45.982Z,12.60
2019-04-22T00:25:32.962Z,12.60
2019-04-22T00:27:56.409Z,12.60
2019-04-22T00:30:33.930Z,12.50
2019-04-22T00:32:55.535Z,12.50
2019-04-22T00:35:29.528Z,12.50
2019-04-22T00:38:11.460Z,12.50
2019-04-22T00:43:04.978Z,12.50
2019-04-22T00:45:44.592Z,12.50
2019-04-22T00:48:16.422Z,12.40
2019-04-22T00:50:46.683Z,12.40
2019-04-22T00:53:26.558Z,12.40
2019-04-22T00:56:11.127Z,12.40
2019-04-22T00:58:42.107Z,12.40
2019-04-22T01:01:17.504Z,12.30
2019-04-22T01:03:50.421Z,12.30
2019-04-22T01:06:17.314Z,12.30
2019-04-22T01:08:53.016Z,12.30
2019-04-22T01:11:22.709Z,12.20
2019-04-22T01:13:50.185Z,12.20
2019-04-22T01:16:22.620Z,12.20
2019-04-22T01:18:57.448Z,12.20
2019-04-22T01:21:32.044Z,12.20
2019-04-22T01:23:59.671Z,12.20
2019-04-22T01:26:27.150Z,12.20
2019-04-22T01:28:56.353Z,12.10
2019-04-22T01:31:20.321Z,12.10
2019-04-22T01:34:03.043Z,12.10
2019-04-22T01:36:45.683Z,12.10
2019-04-22T01:39:15.377Z,12.00
2019-04-22T01:41:55.088Z,12.00
2019-04-22T01:46:49.417Z,12.00
2019-04-22T01:49:23.697Z,11.90
2019-04-22T01:52:02.924Z,11.90
2019-04-22T01:54:29.808Z,11.90
2019-04-22T01:56:57.103Z,11.90
2019-04-22T01:59:22.463Z,11.90
2019-04-22T02:02:02.971Z,11.90
2019-04-22T02:04:39.754Z,11.80
2019-04-22T02:07:01.935Z,11.80
2019-04-22T02:09:38.584Z,11.80
2019-04-22T02:12:06.249Z,11.70
2019-04-22T02:14:41.074Z,11.70
2019-04-22T02:17:21.076Z,11.70
2019-04-22T02:19:50.569Z,11.70
2019-04-22T02:22:17.634Z,11.70
2019-04-22T02:24:46.819Z,11.60
2019-04-22T02:27:27.427Z,11.60
2019-04-22T02:29:47.286Z,11.60
2019-04-22T02:35:11.058Z,11.50
2019-04-22T02:37:22.887Z,11.50
2019-04-22T02:42:30.012Z,11.50
2019-04-22T02:45:20.949Z,11.50
2019-04-22T02:47:27.073Z,11.40
2019-04-22T02:50:05.194Z,11.40
2019-04-22T02:55:07.168Z,11.40
2019-04-22T03:03:01.067Z,11.30
2019-04-22T03:05:27.988Z,11.30
2019-04-22T03:10:29.862Z,11.30
2019-04-22T03:12:51.617Z,11.20
2019-04-22T03:15:21.657Z,11.20
2019-04-22T03:20:27.439Z,11.20
2019-04-22T03:23:05.959Z,11.20
2019-04-22T03:28:18.684Z,11.10
2019-04-22T03:35:44.998Z,11.10
2019-04-22T03:43:15.656Z,11.00
2019-04-22T03:45:51.461Z,11.00
2019-04-22T03:51:11.996Z,11.00
2019-04-22T03:53:33.495Z,11.00
2019-04-22T03:55:59.807Z,10.90
2019-04-22T03:58:21.453Z,10.90
2019-04-22T04:03:22.781Z,10.90
2019-04-22T04:06:00.030Z,10.90
2019-04-22T04:10:57.560Z,10.80
2019-04-22T04:13:34.075Z,10.80
2019-04-22T04:16:04.724Z,10.80
2019-04-22T04:18:58.176Z,10.80
2019-04-22T04:21:22.229Z,10.70
2019-04-22T04:23:50.306Z,10.70
2019-04-22T04:26:17.286Z,10.70
2019-04-22T04:31:25.119Z,10.70
2019-04-22T04:33:46.591Z,10.70
2019-04-22T04:36:23.871Z,10.70
2019-04-22T04:38:51.884Z,10.70
2019-04-22T04:41:29.069Z,10.70
2019-04-22T04:56:38.492Z,10.60
2019-04-22T04:59:19.505Z,10.60
2019-04-22T05:01:35.457Z,10.60
2019-04-22T05:04:40.892Z,10.50
2019-04-22T05:06:44.981Z,10.50
2019-04-22T05:09:15.069Z,10.50
2019-04-22T05:12:03.403Z,10.50
2019-04-22T05:14:14.461Z,10.50
2019-04-22T05:19:16.008Z,10.50
2019-04-22T05:21:47.186Z,10.50
2019-04-22T05:24:29.897Z,10.50
2019-04-22T05:27:05.286Z,10.50
2019-04-22T05:29:23.483Z,10.50
2019-04-22T05:31:55.319Z,10.50
2019-04-22T05:34:22.793Z,10.50
2019-04-22T05:36:55.412Z,10.50
2019-04-22T05:39:25.044Z,10.50
2019-04-22T05:42:03.142Z,10.50
2019-04-22T05:44:32.892Z,10.50
2019-04-22T05:47:01.581Z,10.50
2019-04-22T05:49:28.969Z,10.50
2019-04-22T05:52:02.771Z,10.50
2019-04-22T05:54:32.690Z,10.50
2019-04-22T05:57:12.412Z,10.50
2019-04-22T06:02:36.059Z,10.50
2019-04-22T06:04:46.305Z,10.50
2019-04-22T06:07:13.658Z,10.50
2019-04-22T06:09:54.435Z,10.50
2019-04-22T06:12:17.456Z,10.50
2019-04-22T06:14:54.329Z,10.50
2019-04-22T06:17:31.710Z,10.50
2019-04-22T06:19:57.463Z,10.50
2019-04-22T06:22:41.743Z,10.60
2019-04-22T06:25:01.213Z,10.60
2019-04-22T06:27:38.695Z,10.70
2019-04-22T06:30:07.663Z,10.70
2019-04-22T06:32:31.441Z,10.70
2019-04-22T06:35:16.674Z,10.70
2019-04-22T06:37:43.419Z,10.80
2019-04-22T06:40:13.078Z,10.80
2019-04-22T06:42:42.520Z,10.90
2019-04-22T06:45:21.878Z,10.90
2019-04-22T06:47:59.177Z,11.00
2019-04-22T06:50:31.479Z,11.00
2019-04-22T06:52:51.953Z,11.00
2019-04-22T06:55:23.276Z,11.10
2019-04-22T06:57:53.274Z,11.20
2019-04-22T07:00:28.891Z,11.20
2019-04-22T07:03:26.829Z,11.30
2019-04-22T07:05:27.559Z,11.30
2019-04-22T07:08:14.353Z,11.40
2019-04-22T07:10:35.138Z,11.40
2019-04-22T07:13:01.207Z,11.50
2019-04-22T07:15:46.646Z,11.60
2019-04-22T07:18:11.494Z,11.60
2019-04-22T07:20:48.935Z,11.70
2019-04-22T07:23:15.465Z,11.80
2019-04-22T07:28:17.717Z,11.90
2019-04-22T07:30:47.215Z,11.90
2019-04-22T07:33:26.247Z,12.00
2019-04-22T07:38:25.682Z,12.10
2019-04-22T07:40:51.212Z,12.20
2019-04-22T07:45:56.484Z,12.30
2019-04-22T07:48:44.874Z,12.40
2019-04-22T07:53:33.976Z,12.40
2019-04-22T07:56:16.741Z,12.40
2019-04-22T07:58:43.539Z,12.50
2019-04-22T08:01:19.129Z,12.50
2019-04-22T08:06:17.234Z,12.60
2019-04-22T08:08:58.269Z,12.70
2019-04-22T08:11:42.301Z,12.80
2019-04-22T08:13:54.661Z,12.90
2019-04-22T08:16:25.093Z,12.90
2019-04-22T08:19:04.129Z,13.00
2019-04-22T08:21:29.826Z,13.10
2019-04-22T08:24:04.557Z,13.10
2019-04-22T08:26:32.070Z,13.20
2019-04-22T08:29:12.331Z,13.30
2019-04-22T08:31:42.035Z,13.30
2019-04-22T08:36:58.745Z,13.40
2019-04-22T08:39:15.378Z,13.50
2019-04-22T08:41:43.827Z,13.50
2019-04-22T08:44:17.398Z,13.60
2019-04-22T08:47:00.435Z,13.60
2019-04-22T08:49:30.454Z,13.70
2019-04-22T08:51:58.811Z,13.70
2019-04-22T08:54:28.349Z,13.80
2019-04-22T08:56:58.361Z,13.90
2019-04-22T08:59:46.877Z,13.90
2019-04-22T09:02:10.155Z,14.00
2019-04-22T09:04:31.376Z,14.00
2019-04-22T09:07:18.274Z,14.10
2019-04-22T09:09:42.530Z,14.10
2019-04-22T09:12:08.191Z,14.20
2019-04-22T09:14:43.458Z,14.30
2019-04-22T09:17:17.318Z,14.70
2019-04-22T09:19:43.624Z,14.60
2019-04-22T09:22:28.203Z,14.50
2019-04-22T09:24:46.872Z,14.60
2019-04-22T09:27:26.602Z,14.60
2019-04-22T09:29:50.074Z,14.70
2019-04-22T09:32:38.615Z,14.80
2019-04-22T09:34:51.507Z,14.80
2019-04-22T09:37:26.852Z,14.80
2019-04-22T09:39:59.644Z,14.90
2019-04-22T09:42:31.792Z,14.90
2019-04-22T09:45:04.691Z,15.00
2019-04-22T09:47:33.743Z,15.00
2019-04-22T09:50:01.475Z,15.10
2019-04-22T09:52:37.669Z,15.20
2019-04-22T09:55:12.451Z,15.20
2019-04-22T09:57:51.653Z,15.30
2019-04-22T10:00:10.878Z,15.30
2019-04-22T10:07:44.887Z,15.40
2019-04-22T10:10:18.800Z,15.50
2019-04-22T10:12:46.596Z,15.60
2019-04-22T10:15:19.583Z,15.60
2019-04-22T10:18:04.883Z,15.80
2019-04-22T10:20:38.756Z,15.90
2019-04-22T10:23:17.753Z,15.90
2019-04-22T10:25:50.872Z,16.00
2019-04-22T10:28:15.585Z,16.00
2019-04-22T10:30:47.053Z,16.00
2019-04-22T10:33:11.684Z,16.00
2019-04-22T10:35:28.737Z,16.00
2019-04-22T10:37:58.392Z,16.10
2019-04-22T10:40:30.274Z,16.30
2019-04-22T10:43:01.177Z,16.30
2019-04-22T10:45:32.357Z,16.30
2019-04-22T10:48:03.936Z,16.30
2019-04-22T10:50:46.591Z,16.40
2019-04-22T10:53:19.721Z,16.40
2019-04-22T10:55:51.692Z,16.40
2019-04-22T10:58:22.829Z,16.50
2019-04-22T11:00:54.238Z,16.50
2019-04-22T11:03:24.710Z,16.60
2019-04-22T11:05:54.892Z,16.60
2019-04-22T11:08:37.905Z,16.60
2019-04-22T11:11:10.458Z,16.70
2019-04-22T11:13:28.383Z,16.70
2019-04-22T11:16:03.466Z,16.80
2019-04-22T11:18:31.648Z,16.80
2019-04-22T11:21:01.939Z,16.80
2019-04-22T11:23:32.487Z,16.90
2019-04-22T11:26:03.775Z,16.90
2019-04-22T11:28:35.716Z,17.00
2019-04-22T11:31:06.253Z,17.10
2019-04-22T11:33:36.457Z,17.10
2019-04-22T11:36:07.954Z,17.10
2019-04-22T11:38:48.689Z,17.10
2019-04-22T11:41:09.668Z,17.10
2019-04-22T11:43:41.182Z,17.30
2019-04-22T11:46:11.752Z,17.30
2019-04-22T11:48:42.416Z,17.30
2019-04-22T11:51:13.821Z,17.40
2019-04-22T11:53:45.111Z,17.40
2019-04-22T11:56:16.628Z,17.60
2019-04-22T11:58:47.010Z,17.60
2019-04-22T12:01:17.311Z,17.50
2019-04-22T12:03:47.393Z,17.60
2019-04-22T12:06:18.087Z,17.60
2019-04-22T12:08:49.918Z,17.60
2019-04-22T12:11:20.632Z,17.70
2019-04-22T12:13:51.817Z,17.60
2019-04-22T12:16:23.203Z,17.70
2019-04-22T12:18:53.501Z,17.60
2019-04-22T12:21:23.798Z,17.70
2019-04-22T12:23:54.993Z,17.80
2019-04-22T12:26:26.582Z,17.80
2019-04-22T12:28:57.243Z,17.70
2019-04-22T12:31:27.542Z,17.70
2019-04-22T12:34:01.443Z,17.70
2019-04-22T12:36:32.718Z,17.70
2019-04-22T12:39:03.283Z,17.70
2019-04-22T12:41:33.881Z,17.80
2019-04-22T12:44:07.290Z,17.90
2019-04-22T12:46:39.318Z,17.90
2019-04-22T12:49:09.959Z,17.90
2019-04-22T12:51:40.977Z,17.90
2019-04-22T12:54:13.022Z,17.90
2019-04-22T12:56:43.987Z,18.00
2019-04-22T12:59:14.419Z,17.90
2019-04-22T13:01:44.702Z,18.00
2019-04-22T13:04:17.568Z,18.00
2019-04-22T13:06:48.039Z,18.00
2019-04-22T13:09:19.479Z,18.00
2019-04-22T13:11:51.131Z,18.00
2019-04-22T13:14:21.291Z,18.00
2019-04-22T13:16:51.330Z,18.00
2019-04-22T13:19:23.121Z,18.00
2019-04-22T13:21:54.410Z,18.00
2019-04-22T13:24:25.791Z,17.90
2019-04-22T13:26:57.083Z,18.00
2019-04-22T13:29:27.649Z,18.00
2019-04-22T13:31:58.579Z,18.00
2019-04-22T13:34:34.876Z,18.00
2019-04-22T13:37:01.145Z,18.00
2019-04-22T13:39:31.483Z,18.00
2019-04-22T13:42:05.605Z,18.00
2019-04-22T13:44:33.540Z,17.90
2019-04-22T13:47:19.759Z,18.00
2019-04-22T13:50:28.285Z,17.90
2019-04-22T13:54:06.515Z,17.90
2019-04-22T13:55:10.429Z,17.90
2019-04-22T13:57:27.607Z,17.90
2019-04-22T13:59:50.699Z,17.80
2019-04-22T14:02:19.145Z,17.80
2019-04-22T14:04:50.778Z,17.70
2019-04-22T14:07:20.955Z,17.70
2019-04-22T14:09:51.041Z,17.60
2019-04-22T14:12:21.768Z,17.70
2019-04-22T14:14:52.602Z,17.70
2019-04-22T14:17:23.243Z,17.60
2019-04-22T14:19:54.844Z,17.50
2019-04-22T14:22:26.251Z,17.60
2019-04-22T14:24:56.472Z,17.70
2019-04-22T14:27:38.172Z,17.60
2019-04-22T14:29:59.546Z,17.60
2019-04-22T14:32:31.831Z,17.60
2019-04-22T14:35:01.115Z,17.70
2019-04-22T14:37:32.171Z,17.60
2019-04-22T14:40:07.099Z,17.50
2019-04-22T14:42:52.030Z,17.50
2019-04-22T14:45:42.333Z,17.40
2019-04-22T14:48:05.827Z,17.40
2019-04-22T14:50:29.324Z,17.40
2019-04-22T14:53:03.920Z,17.30
2019-04-22T14:55:22.859Z,17.30
2019-04-22T14:57:49.073Z,17.30
2019-04-22T15:00:22.041Z,17.20
2019-04-22T15:02:52.319Z,17.20
2019-04-22T15:05:23.822Z,17.20
2019-04-22T15:07:55.043Z,17.20
2019-04-22T15:10:26.220Z,17.20
2019-04-22T15:12:58.771Z,17.20
2019-04-22T15:15:42.063Z,17.20
2019-04-22T15:18:28.239Z,17.10
2019-04-22T15:21:02.761Z,17.10
2019-04-22T15:23:34.836Z,17.00
2019-04-22T15:26:06.413Z,17.00
2019-04-22T15:28:37.443Z,16.90
2019-04-22T15:31:09.009Z,17.00
2019-04-22T15:33:39.604Z,17.00
2019-04-22T15:36:10.018Z,17.00
2019-04-22T15:38:40.547Z,16.90
2019-04-22T15:41:12.647Z,16.90
2019-04-22T15:43:43.690Z,16.90
2019-04-22T15:46:14.153Z,16.90
2019-04-22T15:48:44.436Z,16.70
2019-04-22T15:51:14.559Z,16.60
2019-04-22T15:53:45.461Z,16.60
2019-04-22T15:56:16.736Z,16.60
2019-04-22T15:58:48.586Z,16.60
2019-04-22T16:01:25.908Z,16.60
2019-04-22T16:03:50.320Z,16.60
2019-04-22T16:06:21.925Z,16.60
2019-04-22T16:08:54.080Z,16.50
2019-04-22T16:11:24.241Z,16.50
2019-04-22T16:13:54.757Z,16.50
2019-04-22T16:16:24.969Z,16.50
2019-04-22T16:18:56.161Z,16.40
2019-04-22T16:21:32.729Z,16.40
2019-04-22T16:24:15.953Z,16.30
2019-04-22T16:26:48.523Z,16.20
2019-04-22T16:29:19.204Z,16.10
2019-04-22T16:31:49.540Z,16.20
2019-04-22T16:34:19.670Z,16.20
2019-04-22T16:36:49.587Z,16.10
2019-04-22T16:39:20.713Z,16.10
2019-04-22T16:41:52.794Z,16.10
2019-04-22T16:44:22.681Z,16.00
2019-04-22T16:46:53.123Z,16.00
2019-04-22T16:49:25.908Z,16.00
2019-04-22T16:51:56.198Z,15.90
2019-04-22T16:54:27.807Z,15.90
2019-04-22T16:56:57.900Z,15.80
2019-04-22T16:59:28.786Z,15.80
2019-04-22T17:02:16.698Z,15.80
2019-04-22T17:04:51.504Z,15.80
2019-04-22T17:07:22.399Z,15.70
2019-04-22T17:09:52.561Z,15.70
2019-04-22T17:12:23.772Z,15.70
2019-04-22T17:14:59.753Z,15.70
2019-04-22T17:17:26.625Z,15.70
2019-04-22T17:19:57.643Z,15.60
2019-04-22T17:22:29.356Z,15.60
2019-04-22T17:25:00.233Z,15.50
2019-04-22T17:27:32.430Z,15.50
2019-04-22T17:30:02.481Z,15.50
2019-04-22T17:32:33.654Z,15.50
2019-04-22T17:35:06.374Z,15.40
2019-04-22T17:37:38.903Z,15.40
2019-04-22T17:40:29.808Z,15.40
2019-04-22T17:43:00.929Z,15.40
2019-04-22T17:45:43.630Z,15.20
2019-04-22T17:48:22.289Z,15.20
2019-04-22T17:51:07.610Z,15.20
2019-04-22T17:53:38.414Z,15.20
2019-04-22T17:56:02.534Z,15.20
2019-04-22T17:58:36.007Z,15.10
2019-04-22T18:01:09.197Z,15.00
2019-04-22T18:03:26.787Z,15.00
2019-04-22T18:05:54.178Z,15.00
2019-04-22T18:08:42.212Z,15.00
2019-04-22T18:11:20.098Z,15.00
2019-04-22T18:13:44.340Z,14.90
2019-04-22T18:16:18.253Z,14.90
2019-04-22T18:18:47.696Z,14.90
2019-04-22T18:21:14.711Z,14.90
2019-04-22T18:23:39.982Z,14.80
2019-04-22T18:26:22.920Z,14.80
2019-04-22T18:28:54.319Z,14.80
2019-04-22T18:31:17.447Z,14.80
2019-04-22T18:33:50.405Z,14.70
2019-04-22T18:36:23.845Z,14.70
2019-04-22T18:39:04.883Z,14.70
2019-04-22T18:41:28.890Z,14.60
2019-04-22T18:44:06.261Z,14.60
2019-04-22T18:46:32.961Z,14.60
2019-04-22T18:49:03.415Z,14.60
2019-04-22T18:51:43.846Z,14.60
2019-04-22T18:54:31.072Z,14.60
2019-04-22T18:57:07.168Z,14.50
2019-04-22T18:59:25.635Z,14.40
2019-04-22T19:01:52.323Z,14.40
2019-04-22T19:04:27.451Z,14.40
2019-04-22T19:07:16.897Z,14.30
2019-04-22T19:09:51.664Z,14.30
2019-04-22T19:15:01.760Z,14.20
2019-04-22T19:20:00.137Z,14.20
2019-04-22T19:22:27.330Z,14.20
2019-04-22T19:24:47.320Z,12.90
2019-04-22T19:27:26.835Z,12.80
2019-04-22T19:29:57.745Z,13.30
2019-04-22T19:32:34.012Z,13.50
2019-04-22T19:34:59.961Z,13.70
2019-04-22T19:37:29.929Z,13.80
2019-04-22T19:40:10.014Z,13.80
2019-04-22T19:42:49.528Z,13.80
2019-04-22T19:45:05.868Z,13.70
2019-04-22T19:47:48.138Z,13.80
2019-04-22T19:50:21.351Z,13.80
2019-04-22T19:52:44.690Z,13.80
2019-04-22T19:55:18.209Z,13.70
2019-04-22T19:57:46.238Z,13.70
2019-04-22T20:00:14.492Z,13.70
2019-04-22T20:02:51.180Z,13.60
2019-04-22T20:05:37.207Z,13.70
2019-04-22T20:08:07.231Z,13.60
2019-04-22T20:10:32.693Z,13.60
2019-04-22T20:13:07.635Z,13.60
2019-04-22T20:15:30.651Z,13.50
2019-04-22T20:20:49.066Z,13.60
2019-04-22T20:23:10.109Z,13.50
2019-04-22T20:25:40.748Z,13.50
2019-04-22T20:28:19.703Z,13.50
2019-04-22T20:30:46.164Z,13.50
2019-04-22T20:33:25.977Z,13.50
2019-04-22T20:35:51.374Z,13.40
2019-04-22T20:38:18.465Z,13.40
2019-04-22T20:40:57.463Z,13.50
2019-04-22T20:43:38.970Z,13.40
2019-04-22T20:46:03.111Z,13.40
2019-04-22T20:48:28.652Z,13.40
2019-04-22T20:50:57.934Z,13.30
2019-04-22T20:53:37.956Z,13.40
2019-04-22T20:56:05.130Z,13.30
2019-04-22T20:58:32.778Z,13.30
2019-04-22T21:01:02.689Z,13.30
2019-04-22T21:03:29.445Z,13.30
2019-04-22T21:06:06.877Z,13.20
2019-04-22T21:08:44.203Z,13.20
2019-04-22T21:11:11.547Z,13.20
2019-04-22T21:13:46.626Z,13.20
2019-04-22T21:16:22.390Z,13.20
2019-04-22T21:18:47.381Z,13.20
2019-04-22T21:21:25.088Z,13.20
2019-04-22T21:23:47.696Z,13.20
2019-04-22T21:26:24.355Z,13.10
2019-04-22T21:29:01.206Z,13.10
2019-04-22T21:31:33.717Z,13.10
2019-04-22T21:34:04.160Z,13.10
2019-04-22T21:36:35.369Z,13.00
2019-04-22T21:39:05.276Z,13.00
2019-04-22T21:41:36.840Z,13.00
2019-04-22T21:44:12.481Z,13.00
2019-04-22T21:46:42.488Z,12.90
2019-04-22T21:49:16.617Z,12.90
2019-04-22T21:51:49.350Z,12.90
2019-04-22T21:54:22.087Z,12.90
2019-04-22T21:57:04.393Z,13.00
2019-04-22T21:59:27.077Z,12.90
2019-04-22T22:01:56.822Z,12.90
2019-04-22T22:04:25.047Z,12.90
2019-04-22T22:06:52.528Z,12.90
2019-04-22T22:09:31.170Z,12.90
2019-04-22T22:12:01.101Z,12.90
2019-04-22T22:14:33.111Z,12.90
2019-04-22T22:16:56.228Z,12.90
2019-04-22T22:19:37.963Z,12.90
2019-04-22T22:22:15.154Z,12.80
2019-04-22T22:24:43.648Z,12.80
2019-04-22T22:27:17.228Z,12.90
2019-04-22T22:32:18.269Z,12.80
2019-04-22T22:34:53.368Z,12.80
2019-04-22T22:37:12.260Z,12.70
2019-04-22T22:39:39.251Z,12.70
2019-04-22T22:42:01.939Z,12.70
2019-04-22T22:44:36.827Z,12.70
2019-04-22T22:47:18.282Z,12.70
2019-04-22T22:49:58.661Z,12.70
2019-04-22T22:54:58.919Z,12.70
2019-04-22T22:57:33.731Z,12.70
2019-04-22T23:00:01.749Z,12.60
2019-04-22T23:02:36.756Z,12.60
2019-04-22T23:05:05.883Z,12.60
2019-04-22T23:07:42.796Z,12.60
2019-04-22T23:10:06.140Z,12.60
2019-04-22T23:12:51.614Z,12.50
2019-04-22T23:15:12.430Z,12.50
2019-04-22T23:17:26.097Z,12.60
2019-04-22T23:19:56.018Z,12.60
2019-04-22T23:22:35.440Z,12.50
2019-04-22T23:25:25.454Z,12.50
2019-04-22T23:27:56.619Z,12.50
2019-04-22T23:30:39.025Z,12.50
2019-04-22T23:33:24.612Z,12.50
2019-04-22T23:36:03.821Z,12.40
2019-04-22T23:38:47.928Z,12.40
2019-04-22T23:41:42.728Z,12.40
2019-04-22T23:44:10.009Z,12.40
2019-04-22T23:46:38.207Z,12.40
2019-04-22T23:49:08.514Z,12.40
2019-04-22T23:51:55.584Z,12.40
2019-04-22T23:56:49.347Z,12.30
2019-04-22T23:59:38.643Z,12.30
